createdAt,value
2019-05-22T00:00:33.767Z,0.00
2019-05-22T00:01:33.768Z,0.00
2019-05-22T00:02:33.756Z,0.00
2019-05-22T00:03:33.739Z,0.00
2019-05-22T00:04:33.739Z,0.00
2019-05-22T00:05:33.720Z,0.00
2019-05-22T00:06:33.826Z,0.00
2019-05-22T00:07:33.665Z,0.00
2019-05-22T00:08:33.675Z,0.00
2019-05-22T00:09:33.650Z,0.00
2019-05-22T00:10:33.651Z,0.00
2019-05-22T00:11:33.619Z,0.00
2019-05-22T00:12:46.064Z,0.00
2019-05-22T00:13:34.631Z,0.00
2019-05-22T00:14:33.585Z,0.00
2019-05-22T00:15:33.578Z,0.00
2019-05-22T00:16:33.570Z,0.00
2019-05-22T00:17:33.552Z,0.00
2019-05-22T00:18:33.543Z,0.00
2019-05-22T00:19:33.544Z,0.00
2019-05-22T00:20:33.523Z,0.00
2019-05-22T00:21:33.513Z,0.00
2019-05-22T00:22:33.520Z,0.00
2019-05-22T00:23:33.486Z,0.00
2019-05-22T00:24:33.486Z,0.00
2019-05-22T00:25:33.471Z,0.00
2019-05-22T00:26:33.457Z,0.00
2019-05-22T00:27:33.438Z,0.00
2019-05-22T00:28:33.430Z,0.00
2019-05-22T00:29:33.433Z,0.00
2019-05-22T00:30:33.425Z,0.00
2019-05-22T00:31:33.408Z,0.00
2019-05-22T00:32:33.386Z,0.00
2019-05-22T00:33:36.218Z,0.00
2019-05-22T00:34:33.391Z,0.00
2019-05-22T00:35:33.352Z,0.00
2019-05-22T00:36:33.359Z,0.00
2019-05-22T00:37:33.330Z,0.00
2019-05-22T00:38:33.320Z,0.00
2019-05-22T00:39:33.309Z,0.00
2019-05-22T00:40:33.313Z,0.00
2019-05-22T00:41:33.299Z,0.00
2019-05-22T00:42:33.277Z,0.00
2019-05-22T00:43:33.264Z,0.00
2019-05-22T00:44:33.257Z,0.00
2019-05-22T00:45:33.254Z,0.00
2019-05-22T00:46:33.231Z,0.00
2019-05-22T00:47:33.217Z,0.00
2019-05-22T00:48:33.228Z,0.00
2019-05-22T00:49:33.193Z,0.00
2019-05-22T00:50:33.194Z,0.00
2019-05-22T00:51:33.207Z,0.00
2019-05-22T00:52:33.159Z,0.00
2019-05-22T00:53:33.156Z,0.00
2019-05-22T00:54:33.139Z,0.00
2019-05-22T00:55:33.125Z,0.00
2019-05-22T00:56:33.113Z,0.00
2019-05-22T00:57:33.121Z,0.00
2019-05-22T00:58:33.102Z,0.00
2019-05-22T00:59:33.909Z,0.00
2019-05-22T01:00:34.958Z,0.00
2019-05-22T01:01:33.084Z,0.00
2019-05-22T01:02:33.068Z,0.00
2019-05-22T01:03:33.042Z,0.00
2019-05-22T01:04:33.032Z,0.00
2019-05-22T01:05:33.021Z,0.00
2019-05-22T01:06:33.024Z,0.00
2019-05-22T01:07:32.997Z,0.00
2019-05-22T01:08:32.990Z,0.00
2019-05-22T01:09:32.977Z,0.00
2019-05-22T01:10:32.967Z,0.00
2019-05-22T01:11:32.965Z,0.00
2019-05-22T01:12:32.969Z,0.00
2019-05-22T01:13:32.933Z,0.00
2019-05-22T01:14:42.514Z,0.00
2019-05-22T01:15:33.906Z,0.00
2019-05-22T01:16:32.894Z,0.00
2019-05-22T01:17:32.898Z,0.00
2019-05-22T01:18:32.917Z,0.00
2019-05-22T01:19:32.865Z,0.00
2019-05-22T01:20:32.858Z,0.00
2019-05-22T01:21:32.842Z,0.00
2019-05-22T01:22:32.843Z,0.00
2019-05-22T01:23:32.830Z,0.00
2019-05-22T01:24:32.805Z,0.00
2019-05-22T01:25:32.805Z,0.00
2019-05-22T01:26:32.803Z,0.00
2019-05-22T01:27:32.776Z,0.00
2019-05-22T01:28:32.761Z,0.00
2019-05-22T01:29:32.753Z,0.00
2019-05-22T01:30:32.737Z,0.00
2019-05-22T01:31:32.728Z,0.00
2019-05-22T01:32:32.732Z,0.00
2019-05-22T01:33:32.718Z,0.00
2019-05-22T01:34:32.703Z,0.00
2019-05-22T01:35:32.683Z,0.00
2019-05-22T01:36:32.671Z,0.00
2019-05-22T01:37:32.662Z,0.00
2019-05-22T01:38:32.662Z,0.00
2019-05-22T01:39:32.639Z,0.00
2019-05-22T01:40:32.624Z,0.00
2019-05-22T01:41:32.617Z,0.00
2019-05-22T01:42:32.644Z,0.00
2019-05-22T01:43:32.608Z,0.00
2019-05-22T01:44:32.594Z,0.00
2019-05-22T01:45:32.572Z,0.00
2019-05-22T01:46:32.561Z,0.00
2019-05-22T01:47:32.563Z,0.00
2019-05-22T01:48:32.551Z,0.00
2019-05-22T01:49:32.543Z,0.00
2019-05-22T01:50:32.515Z,0.00
2019-05-22T01:51:32.503Z,0.00
2019-05-22T01:52:32.493Z,0.00
2019-05-22T01:53:32.501Z,0.00
2019-05-22T01:54:32.473Z,0.00
2019-05-22T01:55:32.451Z,0.00
2019-05-22T01:56:32.446Z,0.00
2019-05-22T01:57:32.434Z,0.00
2019-05-22T01:58:32.451Z,0.00
2019-05-22T01:59:32.410Z,0.00
2019-05-22T02:00:32.395Z,0.00
2019-05-22T02:01:32.389Z,0.00
2019-05-22T02:02:32.375Z,0.00
2019-05-22T02:03:32.363Z,0.00
2019-05-22T02:04:32.361Z,0.00
2019-05-22T02:05:32.353Z,0.00
2019-05-22T02:06:32.332Z,0.00
2019-05-22T02:07:32.320Z,0.00
2019-05-22T02:08:32.318Z,0.00
2019-05-22T02:09:32.301Z,0.00
2019-05-22T02:10:32.320Z,0.00
2019-05-22T02:11:32.271Z,0.00
2019-05-22T02:12:32.269Z,0.00
2019-05-22T02:13:32.260Z,0.00
2019-05-22T02:14:32.237Z,0.00
2019-05-22T02:15:32.228Z,0.00
2019-05-22T02:16:32.239Z,0.00
2019-05-22T02:17:32.202Z,0.00
2019-05-22T02:18:32.195Z,0.00
2019-05-22T02:19:32.185Z,0.00
2019-05-22T02:20:32.176Z,0.00
2019-05-22T02:21:32.182Z,0.00
2019-05-22T02:22:32.151Z,0.00
2019-05-22T02:23:32.140Z,0.00
2019-05-22T02:24:32.133Z,0.00
2019-05-22T02:25:32.121Z,0.00
2019-05-22T02:26:32.105Z,0.00
2019-05-22T02:27:32.105Z,0.00
2019-05-22T02:28:32.083Z,0.00
2019-05-22T02:29:32.080Z,0.00
2019-05-22T02:30:32.087Z,0.00
2019-05-22T02:31:32.048Z,0.00
2019-05-22T02:32:32.037Z,0.00
2019-05-22T02:33:32.030Z,0.00
2019-05-22T02:34:32.029Z,0.00
2019-05-22T02:35:32.005Z,0.00
2019-05-22T02:36:32.012Z,0.00
2019-05-22T02:37:31.982Z,0.00
2019-05-22T02:38:31.974Z,0.00
2019-05-22T02:39:31.969Z,0.00
2019-05-22T02:40:31.970Z,0.00
2019-05-22T02:41:31.939Z,0.00
2019-05-22T02:42:31.947Z,0.00
2019-05-22T02:43:31.920Z,0.00
2019-05-22T02:44:31.991Z,0.00
2019-05-22T02:45:31.908Z,0.00
2019-05-22T02:46:31.926Z,0.00
2019-05-22T02:47:31.874Z,0.00
2019-05-22T02:48:32.378Z,0.00
2019-05-22T02:49:31.851Z,0.00
2019-05-22T02:50:31.841Z,0.00
2019-05-22T02:51:31.842Z,0.00
2019-05-22T02:52:31.816Z,0.00
2019-05-22T02:53:31.801Z,0.00
2019-05-22T02:54:31.809Z,0.00
2019-05-22T02:55:31.783Z,0.00
2019-05-22T02:56:31.787Z,0.00
2019-05-22T02:57:31.762Z,0.00
2019-05-22T02:58:31.768Z,0.00
2019-05-22T02:59:31.739Z,0.00
2019-05-22T03:00:31.722Z,0.00
2019-05-22T03:01:31.725Z,0.00
2019-05-22T03:02:31.714Z,0.00
2019-05-22T03:03:31.689Z,0.00
2019-05-22T03:04:31.684Z,0.00
2019-05-22T03:05:31.671Z,0.00
2019-05-22T03:06:31.657Z,0.00
2019-05-22T03:07:31.849Z,0.00
2019-05-22T03:08:31.633Z,0.00
2019-05-22T03:09:31.623Z,0.00
2019-05-22T03:10:31.619Z,0.00
2019-05-22T03:11:35.175Z,0.00
2019-05-22T03:12:31.593Z,0.00
2019-05-22T03:13:31.598Z,0.00
2019-05-22T03:14:31.569Z,0.00
2019-05-22T03:15:31.560Z,0.00
2019-05-22T03:16:31.544Z,0.00
2019-05-22T03:17:31.569Z,0.00
2019-05-22T03:18:31.523Z,0.00
2019-05-22T03:19:31.527Z,0.00
2019-05-22T03:20:31.507Z,0.00
2019-05-22T03:21:31.489Z,0.00
2019-05-22T03:22:31.490Z,0.00
2019-05-22T03:23:31.465Z,0.00
2019-05-22T03:24:31.469Z,0.00
2019-05-22T03:25:31.444Z,0.00
2019-05-22T03:26:31.431Z,0.00
2019-05-22T03:27:31.425Z,0.00
2019-05-22T03:28:31.421Z,0.00
2019-05-22T03:29:31.421Z,0.00
2019-05-22T03:30:31.392Z,0.00
2019-05-22T03:31:31.525Z,5.62
2019-05-22T03:32:31.369Z,5.62
2019-05-22T03:33:31.359Z,5.62
2019-05-22T03:34:31.358Z,5.62
2019-05-22T03:35:31.511Z,5.62
2019-05-22T03:36:31.327Z,5.62
2019-05-22T03:37:31.311Z,5.62
2019-05-22T03:38:31.297Z,5.62
2019-05-22T03:39:31.299Z,5.62
2019-05-22T03:40:31.276Z,5.62
2019-05-22T03:41:31.263Z,5.62
2019-05-22T03:42:31.261Z,5.62
2019-05-22T03:43:31.241Z,11.25
2019-05-22T03:44:31.245Z,11.25
2019-05-22T03:45:31.220Z,11.25
2019-05-22T03:46:31.208Z,11.25
2019-05-22T03:47:31.208Z,11.25
2019-05-22T03:48:31.210Z,11.25
2019-05-22T03:49:31.557Z,16.88
2019-05-22T03:50:31.172Z,16.88
2019-05-22T03:51:31.168Z,16.88
2019-05-22T03:52:31.145Z,16.88
2019-05-22T03:53:31.135Z,22.50
2019-05-22T03:54:31.122Z,28.12
2019-05-22T03:55:31.109Z,33.75
2019-05-22T03:56:31.117Z,33.75
2019-05-22T03:57:31.097Z,28.12
2019-05-22T03:58:31.089Z,22.50
2019-05-22T03:59:31.084Z,22.50
2019-05-22T04:00:31.066Z,22.50
2019-05-22T04:01:31.056Z,16.88
2019-05-22T04:02:31.041Z,22.50
2019-05-22T04:03:31.022Z,22.50
2019-05-22T04:04:31.009Z,22.50
2019-05-22T04:05:31.018Z,28.12
2019-05-22T04:06:31.000Z,33.75
2019-05-22T04:07:30.979Z,28.12
2019-05-22T04:08:30.971Z,28.12
2019-05-22T04:09:30.951Z,28.12
2019-05-22T04:10:30.959Z,33.75
2019-05-22T04:11:30.932Z,33.75
2019-05-22T04:12:30.917Z,33.75
2019-05-22T04:13:30.919Z,39.38
2019-05-22T04:14:30.895Z,33.75
2019-05-22T04:15:30.896Z,45.00
2019-05-22T04:16:30.871Z,56.25
2019-05-22T04:17:30.863Z,61.88
2019-05-22T04:18:30.853Z,56.25
2019-05-22T04:19:47.701Z,56.25
2019-05-22T04:20:31.841Z,56.25
2019-05-22T04:21:30.818Z,61.88
2019-05-22T04:22:30.807Z,61.88
2019-05-22T04:23:30.795Z,67.50
2019-05-22T04:24:30.784Z,50.62
2019-05-22T04:25:30.863Z,45.00
2019-05-22T04:26:30.764Z,56.25
2019-05-22T04:27:30.762Z,50.62
2019-05-22T04:28:30.739Z,50.62
2019-05-22T04:29:30.740Z,56.25
2019-05-22T04:30:30.722Z,61.88
2019-05-22T04:31:30.717Z,67.50
2019-05-22T04:32:30.702Z,67.50
2019-05-22T04:33:30.730Z,78.75
2019-05-22T04:34:30.671Z,84.38
2019-05-22T04:35:30.667Z,106.88
2019-05-22T04:36:30.666Z,106.88
2019-05-22T04:37:30.636Z,112.50
2019-05-22T04:38:30.627Z,112.50
2019-05-22T04:39:30.615Z,112.50
2019-05-22T04:40:30.618Z,118.12
2019-05-22T04:41:30.605Z,118.12
2019-05-22T04:42:30.582Z,118.12
2019-05-22T04:43:30.569Z,106.88
2019-05-22T04:44:30.564Z,106.88
2019-05-22T04:45:30.550Z,112.50
2019-05-22T04:46:30.555Z,106.88
2019-05-22T04:47:30.538Z,95.62
2019-05-22T04:48:30.518Z,95.62
2019-05-22T04:49:30.502Z,95.62
2019-05-22T04:50:30.497Z,101.25
2019-05-22T04:51:30.490Z,106.88
2019-05-22T04:52:30.485Z,112.50
2019-05-22T04:53:30.461Z,118.12
2019-05-22T04:54:30.444Z,95.62
2019-05-22T04:55:30.438Z,78.75
2019-05-22T04:56:30.426Z,67.50
2019-05-22T04:57:30.425Z,67.50
2019-05-22T04:58:30.401Z,67.50
2019-05-22T04:59:30.404Z,84.38
2019-05-22T05:00:30.390Z,84.38
2019-05-22T05:01:30.371Z,106.88
2019-05-22T05:02:30.378Z,90.00
2019-05-22T05:03:30.359Z,78.75
2019-05-22T05:04:30.340Z,67.50
2019-05-22T05:05:30.327Z,56.25
2019-05-22T05:06:30.311Z,56.25
2019-05-22T05:07:30.302Z,56.25
2019-05-22T05:08:30.325Z,61.88
2019-05-22T05:09:30.277Z,56.25
2019-05-22T05:10:30.264Z,56.25
2019-05-22T05:11:30.253Z,56.25
2019-05-22T05:12:30.240Z,56.25
2019-05-22T05:13:30.234Z,56.25
2019-05-22T05:14:30.236Z,56.25
2019-05-22T05:15:30.209Z,61.88
2019-05-22T05:16:30.196Z,61.88
2019-05-22T05:17:30.202Z,61.88
2019-05-22T05:18:30.177Z,67.50
2019-05-22T05:19:30.184Z,73.12
2019-05-22T05:20:30.157Z,73.12
2019-05-22T05:21:30.143Z,78.75
2019-05-22T05:22:30.132Z,78.75
2019-05-22T05:23:30.156Z,84.38
2019-05-22T05:24:30.111Z,90.00
2019-05-22T05:25:30.096Z,95.62
2019-05-22T05:26:30.084Z,101.25
2019-05-22T05:27:30.088Z,112.50
2019-05-22T05:28:30.062Z,118.12
2019-05-22T05:29:30.069Z,112.50
2019-05-22T05:30:30.040Z,101.25
2019-05-22T05:31:30.076Z,90.00
2019-05-22T05:32:30.021Z,84.38
2019-05-22T05:33:30.026Z,78.75
2019-05-22T05:34:30.012Z,78.75
2019-05-22T05:35:29.989Z,84.38
2019-05-22T05:36:29.976Z,84.38
2019-05-22T05:37:29.976Z,78.75
2019-05-22T05:38:29.953Z,84.38
2019-05-22T05:39:29.961Z,84.38
2019-05-22T05:40:29.937Z,90.00
2019-05-22T05:41:29.919Z,95.62
2019-05-22T05:42:29.911Z,106.88
2019-05-22T05:43:29.902Z,106.88
2019-05-22T05:44:29.891Z,106.88
2019-05-22T05:45:29.887Z,106.88
2019-05-22T05:46:29.862Z,101.25
2019-05-22T05:47:29.856Z,106.88
2019-05-22T05:48:29.844Z,118.12
2019-05-22T05:49:29.833Z,123.75
2019-05-22T05:50:38.973Z,123.75
2019-05-22T05:51:30.812Z,123.75
2019-05-22T05:52:29.814Z,129.38
2019-05-22T05:53:29.787Z,135.00
2019-05-22T05:54:30.424Z,135.00
2019-05-22T05:55:29.788Z,146.25
2019-05-22T05:56:29.751Z,157.50
2019-05-22T05:57:29.747Z,163.12
2019-05-22T05:58:30.168Z,174.38
2019-05-22T05:59:29.718Z,196.88
2019-05-22T06:00:29.711Z,213.75
2019-05-22T06:01:29.738Z,241.88
2019-05-22T06:02:29.686Z,264.38
2019-05-22T06:03:29.678Z,281.25
2019-05-22T06:04:34.826Z,292.50
2019-05-22T06:05:30.661Z,309.38
2019-05-22T06:06:29.641Z,309.38
2019-05-22T06:07:29.643Z,309.38
2019-05-22T06:08:29.637Z,298.12
2019-05-22T06:09:29.608Z,298.12
2019-05-22T06:10:29.641Z,292.50
2019-05-22T06:11:29.591Z,292.50
2019-05-22T06:12:29.573Z,292.50
2019-05-22T06:13:29.574Z,275.62
2019-05-22T06:14:29.553Z,258.75
2019-05-22T06:15:45.626Z,241.88
2019-05-22T06:16:30.625Z,236.25
2019-05-22T06:17:29.521Z,236.25
2019-05-22T06:18:29.539Z,241.88
2019-05-22T06:19:29.552Z,241.88
2019-05-22T06:20:29.532Z,247.50
2019-05-22T06:21:29.474Z,253.12
2019-05-22T06:22:29.466Z,275.62
2019-05-22T06:23:29.459Z,320.62
2019-05-22T06:24:29.562Z,376.88
2019-05-22T06:25:29.465Z,405.00
2019-05-22T06:26:29.432Z,410.62
2019-05-22T06:27:29.415Z,393.75
2019-05-22T06:28:29.399Z,382.50
2019-05-22T06:29:29.817Z,382.50
2019-05-22T06:30:29.386Z,393.75
2019-05-22T06:31:29.365Z,399.38
2019-05-22T06:32:29.369Z,427.50
2019-05-22T06:33:29.346Z,438.75
2019-05-22T06:34:29.330Z,433.12
2019-05-22T06:35:29.344Z,416.25
2019-05-22T06:36:29.307Z,416.25
2019-05-22T06:37:29.299Z,427.50
2019-05-22T06:38:29.285Z,450.00
2019-05-22T06:39:29.277Z,511.88
2019-05-22T06:40:29.316Z,545.62
2019-05-22T06:41:29.257Z,551.25
2019-05-22T06:42:29.242Z,556.88
2019-05-22T06:43:29.243Z,573.75
2019-05-22T06:44:29.220Z,556.88
2019-05-22T06:45:29.210Z,596.25
2019-05-22T06:46:29.231Z,590.62
2019-05-22T06:47:29.217Z,624.38
2019-05-22T06:48:29.176Z,652.50
2019-05-22T06:49:29.166Z,663.75
2019-05-22T06:50:29.158Z,686.25
2019-05-22T06:51:29.138Z,731.25
2019-05-22T06:52:29.134Z,753.75
2019-05-22T06:53:29.130Z,748.12
2019-05-22T06:54:29.105Z,742.50
2019-05-22T06:55:29.100Z,753.75
2019-05-22T06:56:29.100Z,765.00
2019-05-22T06:57:29.074Z,736.88
2019-05-22T06:58:29.079Z,714.38
2019-05-22T06:59:29.059Z,753.75
2019-05-22T07:00:29.040Z,765.00
2019-05-22T07:01:29.033Z,765.00
2019-05-22T07:02:29.031Z,793.12
2019-05-22T07:03:29.027Z,810.00
2019-05-22T07:04:29.076Z,838.12
2019-05-22T07:05:28.988Z,860.62
2019-05-22T07:06:28.975Z,922.50
2019-05-22T07:07:28.966Z,905.62
2019-05-22T07:08:28.952Z,894.38
2019-05-22T07:09:28.952Z,849.38
2019-05-22T07:10:28.992Z,866.25
2019-05-22T07:11:28.913Z,888.75
2019-05-22T07:12:28.922Z,928.12
2019-05-22T07:13:28.900Z,973.12
2019-05-22T07:14:28.888Z,1046.25
2019-05-22T07:15:28.882Z,995.62
2019-05-22T07:16:28.858Z,1125.00
2019-05-22T07:17:28.857Z,1181.25
2019-05-22T07:18:28.851Z,1153.12
2019-05-22T07:19:28.835Z,1125.00
2019-05-22T07:20:28.840Z,1119.38
2019-05-22T07:21:34.039Z,1113.75
2019-05-22T07:22:30.015Z,1051.88
2019-05-22T07:23:28.784Z,1012.50
2019-05-22T07:24:28.775Z,967.50
2019-05-22T07:25:28.783Z,961.88
2019-05-22T07:26:28.752Z,888.75
2019-05-22T07:27:28.774Z,826.88
2019-05-22T07:28:28.729Z,843.75
2019-05-22T07:29:28.723Z,883.12
2019-05-22T07:30:28.701Z,950.62
2019-05-22T07:31:28.695Z,961.88
2019-05-22T07:32:31.078Z,911.25
2019-05-22T07:33:28.733Z,973.12
2019-05-22T07:34:28.659Z,995.62
2019-05-22T07:35:45.609Z,956.25
2019-05-22T07:36:29.636Z,939.38
2019-05-22T07:37:28.627Z,1012.50
2019-05-22T07:38:28.629Z,990.00
2019-05-22T07:39:28.601Z,950.62
2019-05-22T07:40:28.611Z,905.62
2019-05-22T07:41:28.586Z,916.88
2019-05-22T07:42:28.576Z,973.12
2019-05-22T07:43:28.573Z,1040.62
2019-05-22T07:44:28.546Z,1147.50
2019-05-22T07:45:28.537Z,1175.62
2019-05-22T07:46:30.981Z,1136.25
2019-05-22T07:47:28.529Z,1068.75
2019-05-22T07:48:28.522Z,922.50
2019-05-22T07:49:28.490Z,821.25
2019-05-22T07:50:28.482Z,843.75
2019-05-22T07:51:28.467Z,855.00
2019-05-22T07:52:28.458Z,826.88
2019-05-22T07:53:28.473Z,787.50
2019-05-22T07:54:28.439Z,798.75
2019-05-22T07:55:28.422Z,810.00
2019-05-22T07:56:28.413Z,810.00
2019-05-22T07:57:28.402Z,815.62
2019-05-22T07:58:28.416Z,798.75
2019-05-22T07:59:28.396Z,804.38
2019-05-22T08:00:28.371Z,838.12
2019-05-22T08:01:28.362Z,922.50
2019-05-22T08:02:28.348Z,1057.50
2019-05-22T08:03:28.348Z,1130.62
2019-05-22T08:04:28.323Z,1074.38
2019-05-22T08:05:28.353Z,1113.75
2019-05-22T08:06:28.304Z,1113.75
2019-05-22T08:07:28.290Z,1029.38
2019-05-22T08:08:28.349Z,1029.38
2019-05-22T08:09:28.269Z,1029.38
2019-05-22T08:10:28.260Z,995.62
2019-05-22T08:11:28.246Z,1068.75
2019-05-22T08:12:28.243Z,1147.50
2019-05-22T08:13:28.324Z,1158.75
2019-05-22T08:14:28.211Z,1080.00
2019-05-22T08:15:28.204Z,1096.88
2019-05-22T08:16:28.193Z,1102.50
2019-05-22T08:17:28.177Z,1080.00
2019-05-22T08:18:28.166Z,1018.12
2019-05-22T08:19:28.235Z,1035.00
2019-05-22T08:20:28.153Z,1153.12
2019-05-22T08:21:28.145Z,1338.75
2019-05-22T08:22:28.124Z,1552.50
2019-05-22T08:23:28.114Z,1698.75
2019-05-22T08:24:28.102Z,1794.38
2019-05-22T08:25:28.090Z,1546.88
2019-05-22T08:26:28.090Z,1299.38
2019-05-22T08:27:28.068Z,1141.88
2019-05-22T08:28:28.059Z,1063.12
2019-05-22T08:29:28.089Z,1035.00
2019-05-22T08:30:28.035Z,1051.88
2019-05-22T08:31:28.056Z,1063.12
2019-05-22T08:32:28.014Z,1125.00
2019-05-22T08:33:28.008Z,1186.88
2019-05-22T08:34:28.001Z,1248.75
2019-05-22T08:35:27.985Z,1226.25
2019-05-22T08:36:27.965Z,1305.00
2019-05-22T08:37:28.030Z,1271.25
2019-05-22T08:38:27.955Z,1209.38
2019-05-22T08:39:27.936Z,1130.62
2019-05-22T08:40:27.925Z,1063.12
2019-05-22T08:41:27.915Z,1096.88
2019-05-22T08:42:27.918Z,1226.25
2019-05-22T08:43:27.893Z,1305.00
2019-05-22T08:44:27.881Z,1237.50
2019-05-22T08:45:27.866Z,1085.62
2019-05-22T08:46:27.869Z,967.50
2019-05-22T08:47:27.845Z,894.38
2019-05-22T08:48:27.849Z,843.75
2019-05-22T08:49:27.825Z,821.25
2019-05-22T08:50:27.828Z,810.00
2019-05-22T08:51:27.813Z,810.00
2019-05-22T08:52:27.790Z,804.38
2019-05-22T08:53:27.785Z,781.88
2019-05-22T08:54:27.767Z,770.62
2019-05-22T08:55:27.764Z,753.75
2019-05-22T08:56:27.764Z,776.25
2019-05-22T08:57:27.749Z,804.38
2019-05-22T08:58:27.736Z,810.00
2019-05-22T08:59:27.728Z,843.75
2019-05-22T09:00:27.706Z,871.88
2019-05-22T09:01:27.695Z,866.25
2019-05-22T09:02:27.679Z,888.75
2019-05-22T09:03:27.685Z,922.50
2019-05-22T09:04:27.658Z,950.62
2019-05-22T09:05:27.657Z,984.38
2019-05-22T09:06:27.637Z,990.00
2019-05-22T09:07:27.643Z,939.38
2019-05-22T09:08:27.610Z,905.62
2019-05-22T09:09:27.623Z,905.62
2019-05-22T09:10:27.590Z,900.00
2019-05-22T09:11:27.586Z,900.00
2019-05-22T09:12:27.578Z,922.50
2019-05-22T09:13:27.575Z,900.00
2019-05-22T09:14:27.566Z,888.75
2019-05-22T09:15:27.541Z,894.38
2019-05-22T09:16:27.528Z,922.50
2019-05-22T09:17:27.530Z,928.12
2019-05-22T09:18:27.499Z,916.88
2019-05-22T09:19:27.489Z,905.62
2019-05-22T09:20:27.477Z,911.25
2019-05-22T09:21:27.464Z,911.25
2019-05-22T09:22:40.049Z,916.88
2019-05-22T09:23:28.450Z,973.12
2019-05-22T09:24:27.631Z,984.38
2019-05-22T09:25:27.435Z,990.00
2019-05-22T09:26:27.409Z,1006.88
2019-05-22T09:27:27.414Z,1001.25
2019-05-22T09:28:27.447Z,1001.25
2019-05-22T09:29:27.391Z,1012.50
2019-05-22T09:30:27.385Z,984.38
2019-05-22T09:31:27.356Z,922.50
2019-05-22T09:32:27.344Z,883.12
2019-05-22T09:33:27.333Z,916.88
2019-05-22T09:34:27.334Z,961.88
2019-05-22T09:35:27.321Z,990.00
2019-05-22T09:36:27.300Z,990.00
2019-05-22T09:37:27.296Z,900.00
2019-05-22T09:38:27.276Z,832.50
2019-05-22T09:39:27.339Z,866.25
2019-05-22T09:40:27.254Z,928.12
2019-05-22T09:41:27.248Z,990.00
2019-05-22T09:42:27.237Z,1063.12
2019-05-22T09:43:27.223Z,1158.75
2019-05-22T09:44:27.229Z,1170.00
2019-05-22T09:45:27.199Z,1136.25
2019-05-22T09:46:27.211Z,1108.12
2019-05-22T09:47:27.177Z,1147.50
2019-05-22T09:48:27.174Z,1215.00
2019-05-22T09:49:27.221Z,1310.62
2019-05-22T09:50:27.145Z,1378.12
2019-05-22T09:51:27.148Z,1434.38
2019-05-22T09:52:27.124Z,1440.00
2019-05-22T09:53:27.119Z,1406.25
2019-05-22T09:54:27.100Z,1423.12
2019-05-22T09:55:27.102Z,1451.25
2019-05-22T09:56:27.085Z,1451.25
2019-05-22T09:57:27.085Z,1456.88
2019-05-22T09:58:27.095Z,1462.50
2019-05-22T09:59:27.048Z,1462.50
2019-05-22T10:00:27.054Z,1468.12
2019-05-22T10:01:27.046Z,1507.50
2019-05-22T10:02:27.033Z,1597.50
2019-05-22T10:03:27.011Z,1659.38
2019-05-22T10:04:27.004Z,1693.12
2019-05-22T10:05:26.990Z,1625.62
2019-05-22T10:06:26.983Z,1636.88
2019-05-22T10:07:26.967Z,1648.12
2019-05-22T10:08:26.952Z,1580.62
2019-05-22T10:09:26.940Z,1513.12
2019-05-22T10:10:26.935Z,1485.00
2019-05-22T10:11:26.914Z,1473.75
2019-05-22T10:12:26.900Z,1456.88
2019-05-22T10:13:29.130Z,1451.25
2019-05-22T10:14:26.885Z,1372.50
2019-05-22T10:15:27.334Z,1209.38
2019-05-22T10:16:26.855Z,1175.62
2019-05-22T10:17:26.847Z,1209.38
2019-05-22T10:18:26.835Z,1299.38
2019-05-22T10:19:26.869Z,1428.75
2019-05-22T10:20:26.822Z,1546.88
2019-05-22T10:21:26.801Z,2610.00
2019-05-22T10:22:26.797Z,1518.75
2019-05-22T10:23:26.781Z,1552.50
2019-05-22T10:24:26.800Z,1552.50
2019-05-22T10:25:26.755Z,1535.62
2019-05-22T10:26:26.744Z,1603.12
2019-05-22T10:27:26.738Z,1738.12
2019-05-22T10:28:26.736Z,1794.38
2019-05-22T10:29:26.714Z,1738.12
2019-05-22T10:30:26.711Z,1783.12
2019-05-22T10:31:26.721Z,1811.25
2019-05-22T10:32:31.656Z,1800.00
2019-05-22T10:33:27.666Z,1642.50
2019-05-22T10:34:26.654Z,1451.25
2019-05-22T10:35:26.647Z,1378.12
2019-05-22T10:36:26.637Z,1451.25
2019-05-22T10:37:26.635Z,1546.88
2019-05-22T10:38:26.639Z,1608.75
2019-05-22T10:39:26.625Z,1743.75
2019-05-22T10:40:26.597Z,1845.00
2019-05-22T10:41:26.577Z,2075.62
2019-05-22T10:42:26.597Z,2446.88
2019-05-22T10:43:26.562Z,2812.50
2019-05-22T10:44:26.547Z,2992.50
2019-05-22T10:45:26.550Z,2818.12
2019-05-22T10:46:26.523Z,2525.62
2019-05-22T10:47:26.515Z,2531.25
2019-05-22T10:48:26.503Z,2503.12
2019-05-22T10:49:26.506Z,2452.50
2019-05-22T10:50:26.497Z,2525.62
2019-05-22T10:51:26.485Z,2289.38
2019-05-22T10:52:26.460Z,2120.62
2019-05-22T10:53:33.488Z,2143.12
2019-05-22T10:54:27.434Z,2266.88
2019-05-22T10:55:26.430Z,2373.75
2019-05-22T10:56:26.426Z,1968.75
2019-05-22T10:57:26.406Z,1681.88
2019-05-22T10:58:26.395Z,1462.50
2019-05-22T10:59:26.395Z,1310.62
2019-05-22T11:00:26.379Z,1203.75
2019-05-22T11:01:26.392Z,1186.88
2019-05-22T11:02:26.350Z,1383.75
2019-05-22T11:03:26.343Z,1918.12
2019-05-22T11:04:27.119Z,3436.88
2019-05-22T11:05:26.334Z,5613.75
2019-05-22T11:06:26.307Z,2182.50
2019-05-22T11:07:26.296Z,6210.00
2019-05-22T11:08:30.330Z,6063.75
2019-05-22T11:09:27.275Z,6198.75
2019-05-22T11:10:26.270Z,6288.75
2019-05-22T11:11:26.255Z,6159.38
2019-05-22T11:12:26.241Z,5934.38
2019-05-22T11:13:26.242Z,5990.62
2019-05-22T11:14:26.223Z,6271.88
2019-05-22T11:15:26.211Z,6474.38
2019-05-22T11:16:26.217Z,6429.38
2019-05-22T11:17:26.189Z,6575.62
2019-05-22T11:18:26.180Z,6811.88
2019-05-22T11:19:26.171Z,6721.88
2019-05-22T11:20:26.168Z,7059.38
2019-05-22T11:21:26.162Z,6980.62
2019-05-22T11:22:26.137Z,6671.25
2019-05-22T11:23:26.148Z,2103.75
2019-05-22T11:24:26.118Z,2036.25
2019-05-22T11:25:26.112Z,5928.75
2019-05-22T11:26:26.134Z,6485.62
2019-05-22T11:27:26.090Z,6418.12
2019-05-22T11:28:26.123Z,6564.38
2019-05-22T11:29:26.144Z,3256.88
2019-05-22T11:30:26.108Z,7351.88
2019-05-22T11:31:26.066Z,6795.00
2019-05-22T11:32:26.046Z,3909.38
2019-05-22T11:33:26.048Z,2525.62
2019-05-22T11:34:26.068Z,7020.00
2019-05-22T11:35:26.016Z,6834.38
2019-05-22T11:36:26.080Z,5681.25
2019-05-22T11:37:25.988Z,6271.88
2019-05-22T11:38:26.024Z,6215.62
2019-05-22T11:39:38.639Z,6232.50
2019-05-22T11:40:26.957Z,6176.25
2019-05-22T11:41:25.952Z,6176.25
2019-05-22T11:42:25.941Z,6249.38
2019-05-22T11:43:25.941Z,5653.12
2019-05-22T11:44:25.954Z,5310.00
2019-05-22T11:45:25.932Z,1636.88
2019-05-22T11:46:25.900Z,1940.62
2019-05-22T11:47:25.951Z,6356.25
2019-05-22T11:48:25.886Z,6277.50
2019-05-22T11:49:25.892Z,6232.50
2019-05-22T11:50:25.876Z,6255.00
2019-05-22T11:51:25.855Z,6176.25
2019-05-22T11:52:25.847Z,6187.50
2019-05-22T11:53:25.828Z,6187.50
2019-05-22T11:54:25.821Z,5715.00
2019-05-22T11:55:42.563Z,2036.25
2019-05-22T11:56:26.799Z,2070.00
2019-05-22T11:57:25.802Z,1985.62
2019-05-22T11:58:25.779Z,3273.75
2019-05-22T11:59:25.771Z,5973.75
2019-05-22T12:00:25.779Z,1693.12
2019-05-22T12:01:25.751Z,2379.38
2019-05-22T12:02:25.739Z,6120.00
2019-05-22T12:03:25.747Z,6637.50
2019-05-22T12:04:25.765Z,6643.12
2019-05-22T12:05:25.711Z,4595.62
2019-05-22T12:06:25.706Z,1963.12
2019-05-22T12:07:25.686Z,6041.25
2019-05-22T12:08:25.688Z,2655.00
2019-05-22T12:09:25.668Z,2835.00
2019-05-22T12:10:25.734Z,6401.25
2019-05-22T12:11:25.663Z,6024.38
2019-05-22T12:12:25.636Z,5371.88
2019-05-22T12:13:25.649Z,4488.75
2019-05-22T12:14:25.616Z,6446.25
2019-05-22T12:15:25.619Z,6367.50
2019-05-22T12:16:25.594Z,6215.62
2019-05-22T12:17:37.429Z,6328.12
2019-05-22T12:18:26.642Z,1681.88
2019-05-22T12:19:25.587Z,6468.75
2019-05-22T12:20:25.560Z,6345.00
2019-05-22T12:21:25.545Z,6232.50
2019-05-22T12:22:25.540Z,5428.12
2019-05-22T12:23:25.568Z,6103.12
2019-05-22T12:24:30.274Z,6148.12
2019-05-22T12:25:26.515Z,6373.12
2019-05-22T12:26:25.524Z,4477.50
2019-05-22T12:27:25.569Z,5540.62
2019-05-22T12:28:25.489Z,4876.88
2019-05-22T12:29:25.499Z,3420.00
2019-05-22T12:30:25.466Z,6165.00
2019-05-22T12:31:25.447Z,6187.50
2019-05-22T12:32:25.444Z,6142.50
2019-05-22T12:33:25.427Z,1456.88
2019-05-22T12:34:25.436Z,1400.62
2019-05-22T12:35:25.410Z,1260.00
2019-05-22T12:36:25.401Z,5799.38
2019-05-22T12:37:25.396Z,5962.50
2019-05-22T12:38:27.155Z,6001.88